Tiempo atmosférico en la estación meteorológica de Isaba/Izaba, Navarra (820 m.)



Fecha
DESCASC
Temp. máxima en grados centígrados (hora)
DESCASC
Temp. mínima en grados centígrados (hora)
DESCASC
Temp. media en grados centígrados
DESCASC
Racha de viento máxima en m/sg (hora)
DESCASC
Velocidad máxima media en intervalos de 10 minutos(hora)
DESCASC
Precipitaciones diarias en mm
DESCASC
Precipitaciones de 00:00 a 06:00 en mm
DESCASC
Precipitaciones de 06:00 a 12:00 en mm
DESCASC
Precipitaciones de 12:00 a 18:00 en mm
DESCASC
Precipitaciones de 18:00 a 24:00 en mm
DESCASC
28-02-2021 7.6 (23:00) -1.7 (05:40) 2.9 8.89 (22:20) 3.61 (23:59) 7.2 0 2.2 5 0
27-02-2021 12.4 (13:10) 1.2 (04:50) 6.8 16.11 (14:50) 10.28 (15:10) 0 0 0 0 0
26-02-2021 17.6 (15:30) 0.1 (07:40) 8.9 7.78 (17:10) 5 (18:00) 0 0 0 0 0
25-02-2021 15.9 (15:20) 1.4 (00:00) 8.6 8.61 (12:00) 5 (02:30) 0 0 0 0 0
24-02-2021 16.8 (14:40) 8.7 (00:00) 12.7 17.22 (13:40) 8.61 (13:00) 0 0 0 0 0
23-02-2021 12.6 (16:30) 2.7 (00:00) 7.7 18.89 (15:20) 7.5 (15:20) 0.4 0 0.4 0 0
22-02-2021 11.5 (00:50) 0.2 (00:00) 5.9 12.22 (02:40) 5.56 (02:00) 32.8 2.8 22.2 7.4 0.4
21-02-2021 16.5 (12:50) 10.6 (00:00) 13.6 22.22 (00:20) 9.72 (14:40) 0 0 0 0 0
20-02-2021 19.4 (14:40) 12.7 (00:00) 16 19.44 (23:10) 9.72 (21:40) 0 0 0 0 0
19-02-2021 15.5 (15:00) 3.4 (00:00) 9.5 13.89 (13:50) 7.22 (13:50) 0 0 0 0 0
18-02-2021 14.9 (16:00) 6.1 (00:00) 10.5 13.61 (13:10) 6.11 (13:40) 0 0 0 0 0
17-02-2021 14.2 (14:10) 3.1 (00:00) 8.6 10.28 (14:50) 5.28 (12:40) 0 0 0 0 0
16-02-2021 13.3 (16:50) -0.6 (-00:0) 6.4 11.39 (10:10) 7.22 (10:10) 0 0 0 0 0
15-02-2021 14.1 (14:50) -0.7 (-00:0) 6.7 11.11 (15:40) 5.56 (18:40) 0 0 0 0 0
14-02-2021 12.9 (14:40) -1.9 (-00:0) 5.5 12.22 (12:30) 7.5 (12:20) 0 0 0 0 0
13-02-2021 13 (13:10) 1 (00:00) 7 9.17 (17:00) 5.28 (13:50) 0.8 0.8 0 0 0
12-02-2021 9.9 (07:00) 4.6 (00:00) 7.2 11.11 (18:10) 6.11 (18:10) 15.6 0 8.8 2.8 4
11-02-2021 11.2 (15:50) -0.5 (-00:0) 5.3 3.89 (00:10) 1.94 (00:10) 0 0 0 0 0
10-02-2021 5.3 (12:20) 0.3 (00:00) 2.8 8.33 (02:20) 3.06 (07:50) 10.4 1 5.8 3 0.6
09-02-2021 6.7 (13:10) 2.5 (00:00) 4.6 11.11 (12:20) 5.83 (12:40) 16 0 2.4 12.2 1.4
08-02-2021 7 (16:10) 0.6 (00:00) 3.8 8.06 (18:50) 3.06 (18:50) 12.6 2.8 4.6 1 4.2
07-02-2021 6.9 (16:10) 0.7 (00:00) 3.8 9.72 (06:00) 6.11 (06:00) 2.2 0 0 0 2.2
06-02-2021 14.3 (00:20) 1.9 (00:00) 8.1 17.22 (00:30) 7.78 (00:20) 18.8 0 5.4 11.6 1.8
05-02-2021 16.2 (16:10) 6.4 (00:00) 11.3 13.61 (23:50) 6.39 (19:10) 0 0 0 0 0
04-02-2021 16.3 (15:30) 9 (00:00) 12.6 11.39 (00:50) 5 (15:40) 1.2 0.4 0.8 0 0
03-02-2021 11.5 (01:20) 8.1 (00:00) 9.8 15 (05:50) 7.5 (01:20) 2.6 0 0.2 1.8 0.6
02-02-2021 14 (14:30) 5.1 (05:10) 9.5 12.22 (22:00) 6.39 (22:00) 0.4 0.4 0 0 0
01-02-2021 8.5 (15:20) 5.6 (00:00) 7 11.67 (10:20) 5 (09:50) 17.6 8.4 2.2 3.6 3.4
31-01-2021 7.7 (14:00) 0 (00:00) 3.8 5.83 (23:10) 3.06 (00:10) 23.8 12.4 5.4 3.6 2.4

Gráficas

Temp. máximas Temp. mínimas Temp. medias Precipitaciones Rachas de viento máximas Velocidades máximas media en intervalos de 10 minutos

Datos horarios

Fecha y hora oficial Temperatura (ºC) Velocidad del viento (km/h) Dirección del viento Racha (km/h) Dirección de racha Precipitación (mm) Presión (hPa) Tendencia (hPa) Humedad (%)
2021-03-01 23:00:00 8.1 14 Sudoeste 32 Sudoeste 0 -- -- 73
2021-03-01 22:00:00 8.1 12 Sudoeste 33 Sudoeste 0 -- -- 72
2021-03-01 21:00:00 7.9 8 Sur 27 Sudoeste 0 -- -- 73
2021-03-01 20:00:00 7.9 12 Sur 30 Sudoeste 0 -- -- 73
2021-03-01 19:00:00 8.6 15 Sudoeste 31 Sudoeste 0 -- -- 68
2021-03-01 18:00:00 9.5 8 Sur 31 Sudoeste 0 -- -- 65
2021-03-01 17:00:00 10.9 15 Sudoeste 30 Sudoeste 0 -- -- 60
2021-03-01 16:00:00 12 14 Sudoeste 32 Sudoeste 0 -- -- 56
2021-03-01 15:00:00 12.4 13 Sudoeste 40 Sudoeste 0 -- -- 56
2021-03-01 14:00:00 12.2 23 Sudoeste 39 Sudoeste 0 -- -- 53
2021-03-01 13:00:00 12.5 11 Sudoeste 36 Sudoeste 0 -- -- 48
2021-03-01 12:00:00 10.6 20 Sudoeste 37 Sudoeste 0 -- -- 57
2021-03-01 11:00:00 8.5 21 Sudoeste 39 Sudoeste 0 -- -- 65
2021-03-01 10:00:00 7.4 17 Sudoeste 38 Sur 0 -- -- 68
2021-03-01 09:00:00 6.3 12 Sudoeste 36 Sudoeste 0 -- -- 74
2021-03-01 08:00:00 5 13 Sudoeste 33 Sudoeste 0 -- -- 83
2021-03-01 07:00:00 4.4 13 Sudoeste 31 Sudoeste 0 -- -- 90
2021-03-01 06:00:00 4.4 18 Sudoeste 32 Sur 0 -- -- 88
2021-03-01 05:00:00 5.3 16 Sudoeste 37 Sudoeste 0 -- -- 79
2021-03-01 04:00:00 5.3 19 Sudoeste 29 Sur 0 -- -- 80
2021-03-01 03:00:00 6.5 16 Sur 32 Sudoeste 0 -- -- 72
2021-03-01 02:00:00 7.1 15 Sudoeste 31 Oeste 0 -- -- 71
2021-03-01 01:00:00 7.2 13 Sudoeste 31 Sudoeste 0 -- -- 71
2021-03-01 00:00:00 7.6 13 Sur 28 Sudoeste 0 -- -- 71
2021-02-28 23:00:00 7.6 9 Sudoeste 32 Sudeste 0 -- -- 71
2021-02-28 22:00:00 7 9 Sudoeste 28 Sudoeste 0 -- -- 77
2021-02-28 21:00:00 6.6 9 Sur 21 Sudoeste 0 -- -- 80
2021-02-28 20:00:00 5.5 8 Sur 21 Sudoeste 0 -- -- 91
2021-02-28 19:00:00 5.9 12 Sur 21 Sudoeste 0 -- -- 86
2021-02-28 18:00:00 5.6 7 Sur 30 Sur 0.8 -- -- 92
2021-02-28 17:00:00 6.5 6 Sur 19 Sur 0.4 -- -- 90
2021-02-28 16:00:00 7.1 5 Sur 10 Sudoeste 0 -- -- 86
2021-02-28 15:00:00 6.5 4 Sur 18 Sudoeste 0.8 -- -- 92
2021-02-28 14:00:00 6 2 Este 9 Sudoeste 1 -- -- 97
2021-02-28 13:00:00 4.9 0 Calma 8 Sudoeste 2 -- -- 98
2021-02-28 12:00:00 4.2 2 Noroeste 22 Sur 2.2 -- -- 97
2021-02-28 11:00:00 4.2 0 Calma 3 Sur 0 -- -- 85
2021-02-28 10:00:00 1.7 2 Norte 4 Noroeste 0 -- -- 92
2021-02-28 09:00:00 0.2 0 Calma 8 Noroeste 0 -- -- 96
2021-02-28 08:00:00 -0.9 3 Norte 9 Nordeste 0 -- -- 96
2021-02-28 07:00:00 -1.5 4 Nordeste 7 Norte 0 -- -- 98
2021-02-28 06:00:00 -1.7 4 Norte 9 Norte 0 -- -- 97
2021-02-28 05:00:00 -1.2 6 Norte 14 Norte 0 -- -- 96
2021-02-28 04:00:00 -0.7 5 Norte 11 Nordeste 0 -- -- 95
2021-02-28 03:00:00 -0.8 3 Norte 8 Norte 0 -- -- 96
2021-02-28 02:00:00 -0.2 5 Noroeste 9 Norte 0 -- -- 94
2021-02-28 01:00:00 0.8 8 Noroeste 13 Norte 0 -- -- 89
2021-02-28 00:00:00 3.2 3 Sudoeste 19 Nordeste 0 -- -- 80
2021-02-27 23:00:00 4.7 13 Nordeste 26 Nordeste 0 -- -- 76
2021-02-27 22:00:00 5.2 6 Nordeste 38 Norte 0 -- -- 76
2021-02-27 21:00:00 5.5 22 Nordeste 42 Nordeste 0 -- -- 78
2021-02-27 20:00:00 5.6 12 Nordeste 32 Nordeste 0 -- -- 78
2021-02-27 19:00:00 5.9 13 Nordeste 46 Nordeste 0 -- -- 75
2021-02-27 18:00:00 7.2 26 Nordeste 49 Este 0 -- -- 69
2021-02-27 17:00:00 9.2 31 Nordeste 57 Nordeste 0 -- -- 61
2021-02-27 16:00:00 11.1 29 Nordeste 53 Nordeste 0 -- -- 57
2021-02-27 15:00:00 11.5 35 Nordeste 58 Nordeste 0 -- -- 56
2021-02-27 14:00:00 12.3 27 Nordeste 54 Nordeste 0 -- -- 58
2021-02-27 13:00:00 12.1 30 Nordeste 51 Nordeste 0 -- -- 57
2021-02-27 12:00:00 11.6 30 Nordeste 46 Este 0 -- -- 57
2021-02-27 11:00:00 10.3 25 Nordeste 46 Este 0 -- -- 65
2021-02-27 10:00:00 9.3 25 Nordeste 44 Este 0 -- -- 72
2021-02-27 09:00:00 6.2 18 Nordeste 33 Este 0 -- -- 88
2021-02-27 08:00:00 2.1 9 Norte 18 Noroeste 0 -- -- 98
2021-02-27 07:00:00 1.3 9 Norte 18 Norte 0 -- -- 99
2021-02-27 06:00:00 1.2 8 Norte 14 Noroeste 0 -- -- 100
2021-02-27 05:00:00 1.3 5 Noroeste 13 Noroeste 0 -- -- 100
2021-02-27 04:00:00 1.8 3 Norte 9 Norte 0 -- -- 100
2021-02-27 03:00:00 1.7 3 Norte 9 Noroeste 0 -- -- 99
2021-02-27 02:00:00 2.1 4 Noroeste 11 Norte 0 -- -- 98
2021-02-27 01:00:00 3.1 6 Norte 14 Norte 0 -- -- 97
2021-02-27 00:00:00 3.5 4 Norte 13 Norte 0 -- -- 96
2021-02-26 23:00:00 4.2 6 Noroeste 12 Noroeste 0 -- -- 92
2021-02-26 22:00:00 5.3 6 Norte 14 Norte 0 -- -- 88
2021-02-26 21:00:00 6.2 5 Noroeste 14 Nordeste 0 -- -- 85
2021-02-26 20:00:00 7.6 6 Norte 17 Nordeste 0 -- -- 82
2021-02-26 19:00:00 9.9 11 Nordeste 24 Nordeste 0 -- -- 72
2021-02-26 18:00:00 12.4 18 Nordeste 28 Nordeste 0 -- -- 59
2021-02-26 17:00:00 16 14 Nordeste 27 Nordeste 0 -- -- 48
2021-02-26 16:00:00 17 13 Sudoeste 20 Sudoeste 0 -- -- 42
2021-02-26 15:00:00 16.7 12 Sur 19 Sur 0 -- -- 39
2021-02-26 14:00:00 16.7 10 Sur 24 Sur 0 -- -- 40
2021-02-26 13:00:00 15.3 13 Sur 27 Sudoeste 0 -- -- 48
2021-02-26 12:00:00 13.1 10 Sudoeste 20 Sudoeste 0 -- -- 60
2021-02-26 11:00:00 11.2 4 Sur 15 Sur 0 -- -- 66
2021-02-26 10:00:00 8 0 Calma 9 Nordeste 0 -- -- 77
2021-02-26 09:00:00 2.3 2 Nordeste 9 Norte 0 -- -- 100
2021-02-26 08:00:00 0.2 3 Norte 8 Norte 0 -- -- 100
2021-02-26 07:00:00 0.6 4 Norte 8 Noroeste 0 -- -- 100
2021-02-26 06:00:00 0.8 3 Norte 7 Norte 0 -- -- 100
2021-02-26 05:00:00 1.3 3 Norte 8 Norte 0 -- -- 100
2021-02-26 04:00:00 1.7 4 Norte 8 Norte 0 -- -- 99
2021-02-26 03:00:00 2.3 3 Norte 8 Norte 0 -- -- 98
2021-02-26 02:00:00 2.8 3 Norte 9 Noroeste 0 -- -- 97
2021-02-26 01:00:00 3.1 4 Norte 8 Norte 0 -- -- 97
2021-02-26 00:00:00 3.5 2 Norte 8 Norte 0 -- -- 95
2021-02-25 23:00:00 4.2 3 Norte 5 Norte 0 -- -- 94
2021-02-25 22:00:00 4.8 3 Norte 6 Norte 0 -- -- 91
2021-02-25 21:00:00 6 0 Calma 4 Noroeste 0 -- -- 88
2021-02-25 20:00:00 7.4 0 Calma 5 Sudoeste 0 -- -- 82
2021-02-25 19:00:00 9.4 2 Sudoeste 13 Sudoeste 0 -- -- 73
2021-02-25 18:00:00 12.6 6 Sudoeste 18 Sudoeste 0 -- -- 53
2021-02-25 17:00:00 14.4 9 Sudoeste 23 Sudoeste 0 -- -- 41
2021-02-25 16:00:00 15.6 12 Sur 24 Sudoeste 0 -- -- 39
2021-02-25 15:00:00 15.5 16 Sudoeste 24 Sur 0 -- -- 40
2021-02-25 14:00:00 14.6 12 Sudoeste 25 Sur 0 -- -- 47
2021-02-25 13:00:00 13.1 14 Sur 30 Sur 0 -- -- 50
2021-02-25 12:00:00 11.5 15 Sur 31 Sudoeste 0 -- -- 61
2021-02-25 11:00:00 8.8 14 Sudoeste 24 Sudoeste 0 -- -- 75
2021-02-25 10:00:00 7.6 6 Oeste 16 Noroeste 0 -- -- 83
2021-02-25 09:00:00 3.4 3 Noroeste 9 Noroeste 0 -- -- 97
2021-02-25 08:00:00 1.5 7 Norte 12 Noroeste 0 -- -- 98
2021-02-25 07:00:00 2.1 3 Oeste 18 Noroeste 0 -- -- 97
2021-02-25 06:00:00 2.8 6 Noroeste 14 Noroeste 0 -- -- 94
2021-02-25 05:00:00 3.5 6 Norte 14 Norte 0 -- -- 91
2021-02-25 04:00:00 5.3 5 Noroeste 23 Sur 0 -- -- 84
2021-02-25 03:00:00 7.5 17 Sudoeste 30 Sudoeste 0 -- -- 76
2021-02-25 02:00:00 9.6 16 Sur 27 Sur 0 -- -- 69
2021-02-25 01:00:00 9.3 13 Sudoeste 28 Sudoeste 0 -- -- 68
2021-02-25 00:00:00 10.9 15 Sur 31 Sudoeste 0 -- -- 61
2021-02-24 23:00:00 11.2 14 Sur 36 Sudoeste 0 -- -- 56
2021-02-24 22:00:00 10 9 Sur 15 Sur 0 -- -- 62
2021-02-24 21:00:00 10.3 10 Sudoeste 15 Sudoeste 0 -- -- 60
2021-02-24 20:00:00 11.7 9 Sur 19 Sudoeste 0 -- -- 53
2021-02-24 19:00:00 13.2 8 Sur 40 Sudoeste 0 -- -- 48
2021-02-24 18:00:00 14.5 21 Sudoeste 44 Sudoeste 0 -- -- 46
2021-02-24 17:00:00 15.5 15 Sur 45 Sudoeste 0 -- -- 46
2021-02-24 16:00:00 16.3 23 Sudoeste 55 Sur 0 -- -- 46
2021-02-24 15:00:00 16.6 21 Sudoeste 59 Sudoeste 0 -- -- 43
2021-02-24 14:00:00 16.3 26 Sudoeste 62 Sur 0 -- -- 48
2021-02-24 13:00:00 15.4 31 Sudoeste 58 Sudoeste 0 -- -- 51
2021-02-24 12:00:00 14.9 21 Sudoeste 45 Sudoeste 0 -- -- 52
2021-02-24 11:00:00 13.8 18 Sudoeste 55 Sudoeste 0 -- -- 56
2021-02-24 10:00:00 11.7 12 Sudoeste 27 Sudoeste 0 -- -- 66
2021-02-24 09:00:00 9.5 13 Sur 26 Sudoeste 0 -- -- 73
2021-02-24 08:00:00 9.7 15 Sur 32 Sur 0 -- -- 69
2021-02-24 07:00:00 9.4 15 Sur 36 Sudoeste 0 -- -- 72
2021-02-24 06:00:00 10.4 24 Sudoeste 47 Sur 0 -- -- 66
2021-02-24 05:00:00 9.5 22 Sudoeste 44 Sudoeste 0 -- -- 74
2021-02-24 04:00:00 9.9 21 Sudoeste 43 Sudoeste 0 -- -- 72
2021-02-24 03:00:00 10.2 24 Sudoeste 47 Sudoeste 0 -- -- 70
2021-02-24 02:00:00 10.3 22 Sur 45 Sudoeste 0 -- -- 69
2021-02-24 01:00:00 9.6 13 Sur 32 Sudoeste 0 -- -- 74
2021-02-24 00:00:00 8.7 9 Sur 26 Sudoeste 0 -- -- 78
2021-02-23 23:00:00 8.6 13 Sur 26 Sur 0 -- -- 78
2021-02-23 22:00:00 8.8 13 Sur 32 Sudoeste 0 -- -- 79
2021-02-23 21:00:00 10.1 19 Sudoeste 32 Sudoeste 0 -- -- 71
2021-02-23 20:00:00 9.7 10 Sur 28 Sudoeste 0 -- -- 75
2021-02-23 19:00:00 10.9 14 Sudoeste 37 Sudoeste 0 -- -- 67
2021-02-23 18:00:00 11.8 22 Sudoeste 49 Sudoeste 0 -- -- 61
2021-02-23 17:00:00 12.4 13 Sudoeste 58 Sudoeste 0 -- -- 60
2021-02-23 16:00:00 12.1 21 Sudoeste 68 Sudoeste 0 -- -- 61
2021-02-23 15:00:00 11.5 23 Sudoeste 49 Sudoeste 0 -- -- 70
2021-02-23 14:00:00 9.9 20 Sudoeste 48 Oeste 0 -- -- 79
2021-02-23 13:00:00 8.8 19 Sudoeste 46 Sudoeste 0 -- -- 84
2021-02-23 12:00:00 7.8 15 Sudoeste 35 Sudoeste 0 -- -- 90
2021-02-23 11:00:00 7.2 13 Sudoeste 33 Sudoeste 0 -- -- 91
2021-02-23 10:00:00 6.8 13 Sudoeste 45 Sur 0 -- -- 93
2021-02-23 09:00:00 6.4 12 Sudoeste 33 Sudoeste 0 -- -- 96
2021-02-23 08:00:00 6 13 Sudoeste 31 Sudoeste 0.2 -- -- 97
2021-02-23 07:00:00 5 5 Sudoeste 13 Sudoeste 0.2 -- -- 100
2021-02-23 06:00:00 3.1 3 Noroeste 11 Noroeste 0 -- -- 100
2021-02-23 05:00:00 2.7 4 Noroeste 11 Noroeste 0 -- -- 100
2021-02-23 04:00:00 2.9 0 Calma 10 Norte 0 -- -- 100
2021-02-23 03:00:00 3.1 3 Sur 6 Sur 0 -- -- 100
2021-02-23 02:00:00 3.1 0 Calma 4 Sudeste 0 -- -- 100
2021-02-23 01:00:00 3.4 2 Noroeste 6 Norte 0 -- -- 100
2021-02-23 00:00:00 3.3 0 Calma 7 Norte 0 -- -- 100
2021-02-22 23:00:00 3 5 Norte 10 Norte 0 -- -- 100
2021-02-22 22:00:00 3.8 2 Norte 4 Noroeste 0.2 -- -- 100
2021-02-22 21:00:00 4.4 0 Calma 6 Nordeste 0 -- -- 100
2021-02-22 20:00:00 4.5 0 Calma 7 Norte 0 -- -- 100
2021-02-22 19:00:00 5 0 Calma 5 Noroeste 0.2 -- -- 100
2021-02-22 18:00:00 5.6 0 Calma 5 Norte 0.4 -- -- 100
2021-02-22 17:00:00 5.8 2 Nordeste 9 Norte 0.8 -- -- 100
2021-02-22 16:00:00 5.1 2 Norte 9 Nordeste 1 -- -- 100
2021-02-22 15:00:00 4.9 3 Nordeste 7 Norte 1.6 -- -- 100
2021-02-22 14:00:00 3.5 3 Nordeste 11 Norte 2.2 -- -- 100
2021-02-22 13:00:00 2.9 4 Nordeste 9 Norte 1.4 -- -- 100
2021-02-22 12:00:00 1.9 3 Nordeste 10 Norte 0.4 -- -- 100
2021-02-22 11:00:00 1.2 4 Norte 9 Norte 2.6 -- -- 100
2021-02-22 10:00:00 0.3 2 Norte 10 Nordeste 4 -- -- 100
2021-02-22 09:00:00 0.7 5 Nordeste 20 Nordeste 7.6 -- -- 100
2021-02-22 08:00:00 3.5 12 Norte 24 Este 4.8 -- -- 99
2021-02-22 07:00:00 5.2 10 Nordeste 26 Nordeste 2.8 -- -- 99
2021-02-22 06:00:00 6.4 15 Nordeste 27 Nordeste 0.8 -- -- 98
2021-02-22 05:00:00 6.9 5 Nordeste 14 Noroeste 0 -- -- 98
2021-02-22 04:00:00 6.8 8 Nordeste 16 Nordeste 0.6 -- -- 97
2021-02-22 03:00:00 7.7 3 Noroeste 44 Sudeste 1.4 -- -- 84
2021-02-22 02:00:00 10.7 20 Sudeste 42 Sur 0 -- -- 66
2021-02-22 01:00:00 11.4 13 Sudeste 34 Sudeste 0 -- -- 58
2021-02-22 00:00:00 10.6 12 Sur 35 Sur 0 -- -- 63
2021-02-21 23:00:00 11.3 14 Sudeste 44 Sudeste 0 -- -- 58
2021-02-21 22:00:00 13.1 14 Sur 53 Este 0 -- -- 45
2021-02-21 21:00:00 13.6 19 Sur 58 Sudeste 0 -- -- 41
2021-02-21 20:00:00 13.2 18 Sur 50 Sudeste 0 -- -- 43
2021-02-21 19:00:00 13.3 12 Sur 44 Sudeste 0 -- -- 41
2021-02-21 18:00:00 13.9 17 Sur 46 Sur 0 -- -- 39
2021-02-21 17:00:00 14.4 17 Sur 58 Sudoeste 0 -- -- 38
2021-02-21 16:00:00 15.5 21 Sudoeste 63 Sudeste 0 -- -- 35
2021-02-21 15:00:00 15.3 31 Sudeste 77 Sudeste 0 -- -- 33
2021-02-21 14:00:00 15.6 22 Sur 75 Este 0 -- -- 31
2021-02-21 13:00:00 16 31 Sudeste 74 Sudeste 0 -- -- 28
2021-02-21 12:00:00 15.4 25 Sur 63 Sudeste 0 -- -- 27
2021-02-21 11:00:00 14.7 21 Sur 58 Sudeste 0 -- -- 27
2021-02-21 10:00:00 13.6 21 Sur 58 Sur 0 -- -- 28
2021-02-21 09:00:00 12.4 20 Sur 51 Sudeste 0 -- -- 31
2021-02-21 08:00:00 12.1 23 Sudeste 59 Sudeste 0 -- -- 32
2021-02-21 07:00:00 12.1 21 Sudeste 63 Sudeste 0 -- -- 32
2021-02-21 06:00:00 12.2 18 Sur 69 Sudeste 0 -- -- 32
2021-02-21 05:00:00 12.7 24 Sudeste 64 Sudeste 0 -- -- 29
2021-02-21 04:00:00 13.3 24 Sudeste 62 Este 0 -- -- 27
2021-02-21 03:00:00 13.7 24 Sudeste 69 Este 0 -- -- 26
2021-02-21 02:00:00 13.9 23 Sudeste 66 Sudeste 0 -- -- 27
2021-02-21 01:00:00 13.8 20 Sudeste 80 Este 0 -- -- 26
2021-02-21 00:00:00 14.3 26 Sudeste 70 Sudeste 0 -- -- 25
2021-02-20 23:00:00 14.6 19 Sudeste 67 Sudeste 0 -- -- 25
2021-02-20 22:00:00 15 30 Sudeste 69 Sudeste 0 -- -- 26
2021-02-20 21:00:00 15.2 23 Sudeste 53 Sudeste 0 -- -- 26
2021-02-20 20:00:00 15.4 20 Sur 54 Sur 0 -- -- 27
2021-02-20 19:00:00 16 15 Sur 56 Sudeste 0 -- -- 27
2021-02-20 18:00:00 16.8 22 Sudeste 49 Este 0 -- -- 26
2021-02-20 17:00:00 17.3 22 Sudoeste 43 Sudoeste 0 -- -- 25
2021-02-20 16:00:00 17.5 18 Sudeste 45 Sudeste 0 -- -- 26
2021-02-20 15:00:00 18.1 14 Sudeste 33 Sudeste 0 -- -- 25
2021-02-20 14:00:00 19.1 14 Sur 54 Sur 0 -- -- 26
2021-02-20 13:00:00 17.5 15 Sur 46 Sudoeste 0 -- -- 28
2021-02-20 12:00:00 15.9 19 Sudoeste 60 Sudoeste 0 -- -- 31
2021-02-20 11:00:00 15.7 13 Sudeste 41 Sudoeste 0 -- -- 30
2021-02-20 10:00:00 15.2 21 Sudoeste 57 Sudoeste 0 -- -- 31
2021-02-20 09:00:00 14.4 24 Sudoeste 54 Sur 0 -- -- 32
2021-02-20 08:00:00 13.8 17 Sudoeste 51 Sudoeste 0 -- -- 33
2021-02-20 07:00:00 13.4 15 Sur 37 Sudoeste 0 -- -- 33
2021-02-20 06:00:00 12.9 14 Sur 50 Este 0 -- -- 35
2021-02-20 05:00:00 13.1 15 Sur 34 Sur 0 -- -- 35
2021-02-20 04:00:00 13.4 18 Sur 50 Sudeste 0 -- -- 34
2021-02-20 03:00:00 13.6 16 Sur 46 Sudeste 0 -- -- 33
2021-02-20 02:00:00 13.4 14 Sur 56 Sudeste 0 -- -- 34
2021-02-20 01:00:00 14.2 23 Sudeste 54 Sudeste 0 -- -- 33
2021-02-20 00:00:00 12.7 10 Sur 31 Este 0 -- -- 39
2021-02-19 23:00:00 10.8 11 Sur 30 Sudoeste 0 -- -- 47
2021-02-19 22:00:00 10.9 15 Sur 34 Sur 0 -- -- 49
2021-02-19 21:00:00 11.4 17 Sur 31 Sur 0 -- -- 47
2021-02-19 20:00:00 12.4 13 Sur 27 Sudoeste 0 -- -- 42
2021-02-19 19:00:00 13.1 14 Sur 28 Sur 0 -- -- 39
2021-02-19 18:00:00 13.3 9 Sudeste 33 Sur 0 -- -- 39
2021-02-19 17:00:00 14.8 14 Sudoeste 41 Oeste 0 -- -- 38
2021-02-19 16:00:00 15.4 17 Sudoeste 39 Sudoeste 0 -- -- 39
2021-02-19 15:00:00 15.5 15 Sudoeste 46 Sudoeste 0 -- -- 37
2021-02-19 14:00:00 14.4 25 Sudoeste 50 Sudoeste 0 -- -- 39
2021-02-19 13:00:00 14.2 24 Sudoeste 46 Sur 0 -- -- 40
2021-02-19 12:00:00 13.9 16 Sur 46 Sudoeste 0 -- -- 42
2021-02-19 11:00:00 13.7 11 Sur 27 Sur 0 -- -- 40
2021-02-19 10:00:00 11.7 12 Sur 25 Sur 0 -- -- 47
2021-02-19 09:00:00 7.3 6 Sur 18 Sudoeste 0 -- -- 68
2021-02-19 08:00:00 4.1 3 Norte 13 Oeste 0 -- -- 84
2021-02-19 07:00:00 3.6 4 Noroeste 14 Noroeste 0 -- -- 88
2021-02-19 06:00:00 4.7 3 Noroeste 12 Norte 0 -- -- 82
2021-02-19 05:00:00 3.9 6 Noroeste 13 Noroeste 0 -- -- 87
2021-02-19 04:00:00 4.1 5 Noroeste 12 Noroeste 0 -- -- 86
2021-02-19 03:00:00 4.4 4 Noroeste 13 Noroeste 0 -- -- 85
2021-02-19 02:00:00 5 6 Noroeste 12 Noroeste 0 -- -- 84
2021-02-19 01:00:00 5.2 4 Noroeste 10 Norte 0 -- -- 82
2021-02-19 00:00:00 6.1 4 Noroeste 11 Noroeste 0 -- -- 79
2021-02-18 23:00:00 6.5 5 Noroeste 10 Noroeste 0 -- -- 78
2021-02-18 22:00:00 6.8 5 Noroeste 15 Norte 0 -- -- 78
2021-02-18 21:00:00 6.9 5 Noroeste 10 Noroeste 0 -- -- 78
2021-02-18 20:00:00 7.7 5 Noroeste 10 Noroeste 0 -- -- 74
2021-02-18 19:00:00 11.4 5 Sur 14 Sudeste 0 -- -- 52
2021-02-18 18:00:00 13.1 9 Sudeste 26 Sudoeste 0 -- -- 46
2021-02-18 17:00:00 13.7 10 Sudoeste 31 Sudoeste 0 -- -- 43
2021-02-18 16:00:00 14.9 14 Sudoeste 41 Sur 0 -- -- 39
2021-02-18 15:00:00 13.8 18 Sudoeste 40 Sudoeste 0 -- -- 40
2021-02-18 14:00:00 14.2 16 Sudoeste 49 Sudoeste 0 -- -- 38
2021-02-18 13:00:00 13.7 17 Sudoeste 38 Sur 0 -- -- 40
2021-02-18 12:00:00 13 15 Sur 38 Sudoeste 0 -- -- 41
2021-02-18 11:00:00 12.8 16 Sur 36 Sudoeste 0 -- -- 42
2021-02-18 10:00:00 12.5 15 Sudoeste 31 Sudoeste 0 -- -- 44
2021-02-18 09:00:00 11.4 14 Sur 30 Sur 0 -- -- 48
2021-02-18 08:00:00 10.8 10 Sur 32 Sudeste 0 -- -- 50
2021-02-18 07:00:00 11.8 10 Sur 31 Sur 0 -- -- 46
2021-02-18 06:00:00 11.9 13 Sur 26 Sudoeste 0 -- -- 48
2021-02-18 05:00:00 12.1 9 Sur 23 Sudoeste 0 -- -- 49
2021-02-18 04:00:00 11.5 9 Sur 33 Sur 0 -- -- 53
2021-02-18 03:00:00 11.6 12 Sudoeste 31 Sudoeste 0 -- -- 55
2021-02-18 02:00:00 12.1 13 Sur 26 Sudeste 0 -- -- 54
2021-02-18 01:00:00 12.3 12 Sur 27 Sudoeste 0 -- -- 54
2021-02-18 00:00:00 11.1 18 Sur 35 Sudoeste 0 -- -- 62
2021-02-17 23:00:00 11.4 13 Sudoeste 28 Sur 0 -- -- 61
2021-02-17 22:00:00 10.7 12 Sudoeste 21 Sudoeste 0 -- -- 66
2021-02-17 21:00:00 10.3 9 Sudoeste 15 Sur 0 -- -- 70
2021-02-17 20:00:00 11.5 6 Sur 26 Sudoeste 0 -- -- 63
2021-02-17 19:00:00 12 10 Sur 25 Sudoeste 0 -- -- 61
2021-02-17 18:00:00 12.1 13 Sur 25 Sur 0 -- -- 63
2021-02-17 17:00:00 12.5 10 Sur 35 Sur 0 -- -- 62
2021-02-17 16:00:00 13.2 18 Sudoeste 33 Sudoeste 0 -- -- 56
2021-02-17 15:00:00 13.4 18 Sudoeste 37 Sudoeste 0 -- -- 56
2021-02-17 14:00:00 13.4 13 Sudoeste 36 Sudoeste 0 -- -- 56
2021-02-17 13:00:00 13.5 14 Sudoeste 33 Sudoeste 0 -- -- 55
2021-02-17 12:00:00 -- 4 Sudoeste 16 Sudoeste 0 -- -- --
2021-02-17 11:00:00 8.1 5 Sur 10 Sudoeste 0 -- -- 98
2021-02-17 10:00:00 4.8 0 Calma 5 Noroeste 0 -- -- 100
2021-02-17 09:00:00 3.5 0 Calma 3 Este 0 -- -- 100
2021-02-17 08:00:00 3.3 3 Norte 6 Norte 0 -- -- 100
2021-02-17 07:00:00 3.6 0 Calma 9 Norte 0 -- -- 100
2021-02-17 06:00:00 3.7 0 Calma 4 Oeste 0 -- -- 100
2021-02-17 05:00:00 3.6 0 Calma 6 Noroeste 0 -- -- 100
2021-02-17 04:00:00 4.2 0 Calma 5 Norte 0 -- -- 100
2021-02-17 03:00:00 4.9 0 Calma 6 Norte 0 -- -- 100
2021-02-17 02:00:00 5.5 2 Norte 7 Noroeste 0 -- -- 99
2021-02-17 01:00:00 6 0 Calma 4 Norte 0 -- -- 97
2021-02-17 00:00:00 6.7 2 Noroeste 6 Sudeste 0 -- -- 92
2021-02-16 23:00:00 6.6 3 Nordeste 5 Norte 0 -- -- 93
2021-02-16 22:00:00 6.8 0 Calma 5 Noroeste 0 -- -- 91
2021-02-16 21:00:00 7.3 0 Calma 5 Noroeste 0 -- -- 91
2021-02-16 20:00:00 8.5 2 Sudoeste 6 Sur 0 -- -- 85
2021-02-16 19:00:00 9.7 2 Noroeste 10 Sur 0 -- -- 76
2021-02-16 18:00:00 11.8 7 Sur 26 Sudoeste 0 -- -- 63
2021-02-16 17:00:00 13.1 10 Sudoeste 23 Sur 0 -- -- 56
2021-02-16 16:00:00 12.2 15 Sur 31 Sur 0 -- -- 61
2021-02-16 15:00:00 11.9 15 Sur 28 Sur 0 -- -- 61
2021-02-16 14:00:00 12.7 14 Sur 31 Sudoeste 0 -- -- 56
2021-02-16 13:00:00 12.1 15 Sudoeste 36 Sudoeste 0 -- -- 60
2021-02-16 12:00:00 9.8 22 Sudoeste 35 Sudoeste 0 -- -- 69
2021-02-16 11:00:00 8.3 10 Sudoeste 41 Sur 0 -- -- 76
2021-02-16 10:00:00 6.6 24 Sudoeste 40 Sudoeste 0 -- -- 82
2021-02-16 09:00:00 0.1 2 Norte 10 Nordeste 0 -- -- 100
2021-02-16 08:00:00 -0.4 3 Nordeste 10 Norte 0 -- -- 100
2021-02-16 07:00:00 -0.1 4 Nordeste 11 Norte 0 -- -- 100
2021-02-16 06:00:00 0.4 3 Noroeste 12 Nordeste 0 -- -- 100
2021-02-16 05:00:00 0.7 2 Norte 13 Este 0 -- -- 100
2021-02-16 04:00:00 1 2 Norte 9 Nordeste 0 -- -- 100
2021-02-16 03:00:00 0.9 3 Norte 6 Norte 0 -- -- 99
2021-02-16 02:00:00 1.9 0 Calma 19 Norte 0 -- -- 99
2021-02-16 01:00:00 2.9 6 Noroeste 16 Norte 0 -- -- 96
2021-02-16 00:00:00 3.2 5 Noroeste 18 Norte 0 -- -- 97
2021-02-15 23:00:00 4.8 5 Noroeste 25 Sudoeste 0 -- -- 94
2021-02-15 22:00:00 6.3 12 Sudoeste 24 Sur 0 -- -- 90
2021-02-15 21:00:00 6.2 4 Sur 18 Sudoeste 0 -- -- 90
2021-02-15 20:00:00 7.4 9 Sudoeste 22 Sudoeste 0 -- -- 83
2021-02-15 19:00:00 8.9 11 Sur 32 Sudoeste 0 -- -- 74
2021-02-15 18:00:00 9.7 13 Sudoeste 30 Sur 0 -- -- 72
2021-02-15 17:00:00 10.5 16 Sudoeste 33 Sudoeste 0 -- -- 68
2021-02-15 16:00:00 12.6 14 Sudoeste 40 Sudoeste 0 -- -- 61
2021-02-15 15:00:00 13.6 15 Sudoeste 31 Sur 0 -- -- 58
2021-02-15 14:00:00 11.6 15 Sudoeste 30 Sudoeste 0 -- -- 65
2021-02-15 13:00:00 11.2 13 Sudoeste 28 Sudoeste 0 -- -- 66
2021-02-15 12:00:00 9.4 8 Sur 19 Sudoeste 0 -- -- 75
2021-02-15 11:00:00 4.2 0 Calma 4 Nordeste 0 -- -- 97
2021-02-15 10:00:00 2.2 0 Calma 5 Nordeste 0 -- -- 100
2021-02-15 09:00:00 0.1 3 Nordeste 5 Norte 0 -- -- 100
2021-02-15 08:00:00 -0.5 0 Calma 8 Nordeste 0 -- -- 100
2021-02-15 07:00:00 -0.5 5 Nordeste 9 Nordeste 0 -- -- 100
2021-02-15 06:00:00 -0.3 3 Nordeste 9 Nordeste 0 -- -- 100
2021-02-15 05:00:00 0 2 Nordeste 8 Este 0 -- -- 100
2021-02-15 04:00:00 0.5 4 Nordeste 15 Norte 0 -- -- 100
2021-02-15 03:00:00 1.4 4 Norte 14 Nordeste 0 -- -- 99
2021-02-15 02:00:00 2.4 4 Nordeste 9 Norte 0 -- -- 97
2021-02-15 01:00:00 3.2 5 Nordeste 12 Este 0 -- -- 94
2021-02-15 00:00:00 5.7 8 Sudoeste 33 Sudoeste 0 -- -- 82
2021-02-14 23:00:00 5.8 13 Sudoeste 27 Sudoeste 0 -- -- 84
2021-02-14 22:00:00 6 13 Sudoeste 26 Sudoeste 0 -- -- 85
2021-02-14 21:00:00 6.6 13 Sur 26 Sudoeste 0 -- -- 83
2021-02-14 20:00:00 6.9 14 Sudoeste 24 Sudoeste 0 -- -- 83
2021-02-14 19:00:00 7.5 14 Sudoeste 27 Sudoeste 0 -- -- 81
2021-02-14 18:00:00 8.7 9 Sur 41 Sur 0 -- -- 76
2021-02-14 17:00:00 9.9 17 Sudoeste 34 Sudoeste 0 -- -- 71
2021-02-14 16:00:00 11.6 18 Sudoeste 38 Sudoeste 0 -- -- 63
2021-02-14 15:00:00 12.6 20 Sudoeste 38 Sur 0 -- -- 55
2021-02-14 14:00:00 12.6 20 Sudoeste 41 Sur 0 -- -- 55
2021-02-14 13:00:00 11.8 20 Sudoeste 44 Sur 0 -- -- 58
2021-02-14 12:00:00 10.3 23 Sudoeste 38 Sudoeste 0 -- -- 60
2021-02-14 11:00:00 5.1 2 Este 5 Este 0 -- -- 87
2021-02-14 10:00:00 1.3 2 Nordeste 6 Nordeste 0 -- -- 98
2021-02-14 09:00:00 -1.8 2 Nordeste 7 Norte 0 -- -- 100
2021-02-14 08:00:00 -1.9 3 Norte 7 Nordeste 0 -- -- 100
2021-02-14 07:00:00 -1.7 3 Norte 6 Nordeste 0 -- -- 100
2021-02-14 06:00:00 -1.6 3 Norte 10 Nordeste 0 -- -- 100
2021-02-14 05:00:00 -1.5 2 Nordeste 9 Norte 0 -- -- 100
2021-02-14 04:00:00 -1.3 4 Noroeste 7 Noroeste 0 -- -- 100
2021-02-14 03:00:00 -0.7 4 Norte 10 Norte 0 -- -- 100
2021-02-14 02:00:00 -0.1 5 Norte 12 Nordeste 0 -- -- 100
2021-02-14 01:00:00 0.4 5 Norte 10 Norte 0 -- -- 100
2021-02-14 00:00:00 1 6 Norte 10 Norte 0 -- -- 100
2021-02-13 23:00:00 1.7 2 Noroeste 5 Noroeste 0 -- -- 99
2021-02-13 22:00:00 2.5 2 Norte 12 Norte 0 -- -- 98
2021-02-13 21:00:00 3.7 5 Norte 17 Norte 0 -- -- 94
2021-02-13 20:00:00 4.6 6 Nordeste 19 Nordeste 0 -- -- 91
2021-02-13 19:00:00 5.7 13 Nordeste 24 Nordeste 0 -- -- 82
2021-02-13 18:00:00 7 11 Norte 31 Nordeste 0 -- -- 75
2021-02-13 17:00:00 8.9 17 Nordeste 33 Nordeste 0 -- -- 70
2021-02-13 16:00:00 9.2 14 Nordeste 30 Este 0 -- -- 68
2021-02-13 15:00:00 10.8 13 Norte 30 Nordeste 0 -- -- 61
2021-02-13 14:00:00 11.6 17 Norte 29 Norte 0 -- -- 64
2021-02-13 13:00:00 12.7 4 Nordeste 24 Norte 0 -- -- 69
2021-02-13 08:00:00 -- -- -- -- -- -- -- -- --
2021-02-13 07:00:00 4.6 11 Norte 23 Noroeste 0 -- -- 100
2021-02-13 06:00:00 4.9 7 Nordeste 21 Norte 0 -- -- 100
2021-02-13 05:00:00 5.2 6 Norte 17 Este 0 -- -- 100
2021-02-13 04:00:00 5.5 7 Nordeste 18 Nordeste 0 -- -- 100
2021-02-13 03:00:00 5.6 6 Nordeste 18 Nordeste 0.4 -- -- 100
2021-02-13 02:00:00 5.7 4 Norte 22 Nordeste 0 -- -- 100
2021-02-13 01:00:00 5.6 12 Nordeste 25 Nordeste 0.4 -- -- 100
2021-02-13 00:00:00 5.7 17 Nordeste 36 Nordeste 0.2 -- -- 100
2021-02-12 23:00:00 5.8 17 Nordeste 28 Norte 1 -- -- 100
2021-02-12 22:00:00 5.9 14 Nordeste 23 Nordeste 1.4 -- -- 100
2021-02-12 21:00:00 6.1 13 Nordeste 22 Nordeste 0.6 -- -- 100
2021-02-12 20:00:00 6.4 9 Nordeste 22 Nordeste 0.2 -- -- 98
2021-02-12 19:00:00 6.4 8 Nordeste 40 Nordeste 0.6 -- -- 97
2021-02-12 18:00:00 7.2 16 Nordeste 28 Nordeste 0.4 -- -- 96
2021-02-12 17:00:00 8.3 2 Sudoeste 19 Norte 0.6 -- -- 94
2021-02-12 16:00:00 8.7 4 Nordeste 13 Nordeste 0.6 -- -- 96
2021-02-12 15:00:00 8.8 6 Sur 18 Nordeste 0.2 -- -- 91
2021-02-12 14:00:00 8.6 8 Este 14 Este 0.8 -- -- 95
2021-02-12 13:00:00 9.2 4 Nordeste 7 Nordeste 0.2 -- -- 98
2021-02-12 12:00:00 8.5 2 Este 8 Oeste 1.8 -- -- 99
2021-02-12 11:00:00 8.3 0 Calma 12 Sur 1.4 -- -- 100
2021-02-12 10:00:00 8.1 3 Sur 17 Sudoeste 1.4 -- -- 100
2021-02-12 09:00:00 8.1 7 Sur 15 Sur 2.4 -- -- 99
2021-02-12 08:00:00 8.4 4 Sur 22 Sudoeste 1.8 -- -- 96
2021-02-12 07:00:00 9.9 11 Sur 28 Sur 0 -- -- 86
2021-02-12 06:00:00 6.8 6 Sudoeste 16 Sudoeste 0 -- -- 100
2021-02-12 05:00:00 5.3 4 Noroeste 12 Norte 0 -- -- 100
2021-02-12 04:00:00 4.8 2 Norte 8 Noroeste 0 -- -- 100
2021-02-12 03:00:00 4.7 2 Nordeste 9 Noroeste 0 -- -- 100
2021-02-12 02:00:00 4.7 0 Calma 5 Nordeste 0 -- -- 100
2021-02-12 01:00:00 4.8 4 Norte 8 Noroeste 0 -- -- 100
2021-02-12 00:00:00 4.7 2 Noroeste 5 Norte 0 -- -- 100
2021-02-11 23:00:00 4.7 3 Norte 10 Norte 0 -- -- 100
2021-02-11 22:00:00 5.2 0 Calma 7 Noroeste 0 -- -- 100
2021-02-11 21:00:00 5.6 2 Norte 9 Norte 0 -- -- 100
2021-02-11 20:00:00 6.3 2 Norte 6 Nordeste 0 -- -- 100
2021-02-11 19:00:00 7.1 3 Sudeste 5 Nordeste 0 -- -- 98
2021-02-11 18:00:00 8.9 4 Sur 6 Sur 0 -- -- 96
2021-02-11 17:00:00 10.6 3 Sudoeste 5 Sudoeste 0 -- -- 86
2021-02-11 16:00:00 10.9 3 Sur 10 Sur 0 -- -- 83
2021-02-11 15:00:00 10 4 Sur 11 Sur 0 -- -- 83
2021-02-11 14:00:00 10.2 0 Calma 3 Este 0 -- -- 76
2021-02-11 13:00:00 7.6 0 Calma 6 Nordeste 0 -- -- 87
2021-02-11 12:00:00 6 3 Norte 7 Nordeste 0 -- -- 99
2021-02-11 11:00:00 2.9 3 Nordeste 11 Nordeste 0 -- -- 100
2021-02-11 10:00:00 1.8 0 Calma 9 Norte 0 -- -- 100
2021-02-11 09:00:00 -0.5 3 Norte 10 Noroeste 0 -- -- 100
2021-02-11 08:00:00 -0.5 4 Norte 8 Noroeste 0 -- -- 100
2021-02-11 07:00:00 -0.5 5 Norte 10 Norte 0 -- -- 100
2021-02-11 06:00:00 -0.4 3 Norte 8 Este 0 -- -- 100
2021-02-11 05:00:00 0 3 Norte 9 Noroeste 0 -- -- 100
2021-02-11 04:00:00 0.4 5 Norte 11 Norte 0 -- -- 100
2021-02-11 03:00:00 0.9 4 Norte 10 Norte 0 -- -- 100
2021-02-11 02:00:00 1.5 3 Norte 9 Norte 0 -- -- 100
2021-02-11 01:00:00 1.7 4 Norte 14 Norte 0 -- -- 100
2021-02-11 00:00:00 2.1 5 Norte 14 Nordeste 0 -- -- 100
2021-02-10 23:00:00 2.9 2 Norte 11 Nordeste 0 -- -- 100
2021-02-10 22:00:00 3.3 4 Norte 12 Nordeste 0 -- -- 100
2021-02-10 21:00:00 3.4 5 Nordeste 12 Nordeste 0.2 -- -- 100
2021-02-10 20:00:00 3.5 3 Nordeste 9 Nordeste 0.2 -- -- 100
2021-02-10 19:00:00 3.7 3 Norte 7 Nordeste 0.2 -- -- 100
2021-02-10 18:00:00 4 3 Nordeste 7 Nordeste 0.4 -- -- 99
2021-02-10 17:00:00 4.6 2 Norte 8 Nordeste 0.4 -- -- 99
2021-02-10 16:00:00 4.5 3 Norte 7 Nordeste 0.6 -- -- 99
2021-02-10 15:00:00 4.3 5 Nordeste 12 Nordeste 0.6 -- -- 98
2021-02-10 14:00:00 4.5 5 Nordeste 8 Este 0.4 -- -- 96
2021-02-10 13:00:00 4.7 0 Calma 7 Nordeste 0.6 -- -- 97
2021-02-10 12:00:00 4.2 4 Este 12 Noroeste 0.4 -- -- 100
2021-02-10 11:00:00 3.1 3 Nordeste 5 Nordeste 0.2 -- -- 100
2021-02-10 10:00:00 1.4 3 Norte 8 Noroeste 0.4 -- -- 100
2021-02-10 09:00:00 0.3 0 Calma 9 Norte 1.6 -- -- 100
2021-02-10 08:00:00 1 7 Norte 18 Norte 2.2 -- -- 100
2021-02-10 07:00:00 2.7 0 Calma 8 Sudoeste 1 -- -- 100
2021-02-10 06:00:00 2.9 2 Sudoeste 14 Sur 0.8 -- -- 98
2021-02-10 05:00:00 3.1 0 Calma 9 Sudoeste 0 -- -- 97
2021-02-10 04:00:00 3.5 3 Sur 11 Oeste 0 -- -- 92
2021-02-10 03:00:00 3.6 3 Nordeste 30 Oeste 0 -- -- 92
2021-02-10 02:00:00 3.9 8 Sudoeste 23 Oeste 0 -- -- 90
2021-02-10 01:00:00 3.6 8 Sudoeste 17 Sur 0.2 -- -- 93
2021-02-10 00:00:00 3.7 9 Sur 23 Sudoeste 1.4 -- -- 96
2021-02-09 23:00:00 3.4 8 Sudoeste 15 Sudoeste 0 -- -- 100
2021-02-09 22:00:00 3.1 5 Sudoeste 12 Sudoeste 0 -- -- 100
2021-02-09 21:00:00 3.2 0 Calma 9 Sudoeste 0 -- -- 100
2021-02-09 20:00:00 3.7 5 Sudoeste 15 Sudoeste 0 -- -- 98
2021-02-09 19:00:00 3.8 4 Sur 17 Sur 0 -- -- 97
2021-02-09 18:00:00 3.7 7 Sur 32 Sudoeste 2.6 -- -- 96
2021-02-09 17:00:00 4.1 14 Sudoeste 33 Sur 3.2 -- -- 92
2021-02-09 16:00:00 4.6 17 Sudoeste 33 Sur 2.2 -- -- 89
2021-02-09 15:00:00 4.7 9 Sudoeste 33 Sur 3.8 -- -- 92
2021-02-09 14:00:00 5.5 12 Sur 28 Sur 0.4 -- -- 87
2021-02-09 13:00:00 6.6 16 Sur 40 Sudoeste 0 -- -- 81
2021-02-09 12:00:00 5.6 15 Sur 26 Sur 0 -- -- 86
2021-02-09 11:00:00 4.8 10 Sur 25 Sudoeste 1.4 -- -- 89
2021-02-09 10:00:00 4.8 16 Sudoeste 28 Sudoeste 0.2 -- -- 89
2021-02-09 09:00:00 4.5 10 Sur 22 Sudoeste 0.2 -- -- 93
2021-02-09 08:00:00 4.2 11 Sur 24 Sur 0.4 -- -- 99
2021-02-09 07:00:00 3.5 6 Sudoeste 15 Sur 0.2 -- -- 100
2021-02-09 06:00:00 3.1 3 Sudeste 11 Sur 0 -- -- 100
2021-02-09 05:00:00 3 0 Calma 8 Nordeste 0 -- -- 100
2021-02-09 04:00:00 2.8 0 Calma 5 Sudoeste 0 -- -- 100
2021-02-09 03:00:00 2.7 2 Oeste 6 Sur 0 -- -- 100
2021-02-09 02:00:00 2.7 0 Calma 10 Sur 0 -- -- 100
2021-02-09 01:00:00 2.7 2 Sudoeste 6 Noroeste 0 -- -- 100
2021-02-09 00:00:00 2.6 0 Calma 10 Norte 0 -- -- 100
2021-02-08 23:00:00 2.3 2 Noroeste 6 Norte 0 -- -- 100
2021-02-08 22:00:00 2.3 0 Calma 5 Noroeste 0 -- -- 100
2021-02-08 21:00:00 2.9 3 Norte 9 Noroeste 0.2 -- -- 100
2021-02-08 20:00:00 2.8 2 Norte 12 Este 0 -- -- 100
2021-02-08 19:00:00 3.6 6 Nordeste 29 Sudoeste 4 -- -- 98
2021-02-08 18:00:00 4.7 5 Norte 15 Nordeste 0 -- -- 98
2021-02-08 17:00:00 5.8 5 Norte 17 Norte 0 -- -- 96
2021-02-08 16:00:00 5.6 3 Noroeste 12 Noroeste 0 -- -- 99
2021-02-08 15:00:00 5.3 4 Sudoeste 15 Sudoeste 0.2 -- -- 95
2021-02-08 14:00:00 5.2 4 Sudoeste 11 Sudoeste 0.8 -- -- 100
2021-02-08 13:00:00 4.4 0 Calma 4 Sudoeste 0 -- -- 100
2021-02-08 12:00:00 3.9 0 Calma 12 Sudoeste 1.4 -- -- 100
2021-02-08 11:00:00 3.9 3 Sur 11 Sur 0.8 -- -- 100
2021-02-08 10:00:00 2.8 4 Nordeste 8 Nordeste 1.2 -- -- 100
2021-02-08 09:00:00 2.3 8 Nordeste 13 Nordeste 0.6 -- -- 100
2021-02-08 08:00:00 2.2 3 Nordeste 11 Nordeste 0 -- -- 100
2021-02-08 07:00:00 1.9 5 Noroeste 13 Sudoeste 0.6 -- -- 100
2021-02-08 06:00:00 1.9 4 Sudoeste 15 Sudoeste 1.2 -- -- 100
2021-02-08 05:00:00 1.6 0 Calma 4 Sudoeste 0.8 -- -- 100
2021-02-08 04:00:00 1.5 0 Calma 3 Sudoeste 0 -- -- 100
2021-02-08 03:00:00 1.3 2 Sur 5 Sur 0.2 -- -- 100
2021-02-08 02:00:00 1 0 Calma 4 Noroeste 0 -- -- 100
2021-02-08 01:00:00 0.6 0 Calma 2 Norte 0.6 -- -- 100
2021-02-08 00:00:00 1 3 Nordeste 4 Nordeste 1 -- -- 99
2021-02-07 23:00:00 1.8 0 Calma 4 Nordeste 0.6 -- -- 99
2021-02-07 22:00:00 2 2 Sur 8 Sudoeste 0.4 -- -- 97
2021-02-07 21:00:00 2.6 4 Sudeste 16 Sur 0.2 -- -- 91
2021-02-07 20:00:00 3.6 0 Calma 8 Sur 0 -- -- 89
2021-02-07 19:00:00 4 5 Sudoeste 9 Sudoeste 0 -- -- 86
2021-02-07 18:00:00 4.6 0 Calma 12 Norte 0 -- -- 79
2021-02-07 17:00:00 5 3 Noroeste 19 Norte 0 -- -- 81
2021-02-07 16:00:00 6.7 6 Norte 17 Norte 0 -- -- 72
2021-02-07 15:00:00 6 9 Norte 22 Noroeste 0 -- -- 77
2021-02-07 14:00:00 6.3 10 Norte 20 Norte 0 -- -- 79
2021-02-07 13:00:00 5.4 10 Nordeste 24 Nordeste 0 -- -- 83
2021-02-07 12:00:00 4.2 14 Nordeste 23 Nordeste 0 -- -- 84
2021-02-07 11:00:00 3.9 13 Nordeste 31 Nordeste 0 -- -- 86
2021-02-07 10:00:00 2.4 9 Nordeste 20 Nordeste 0 -- -- 92
2021-02-07 09:00:00 0.9 10 Nordeste 25 Nordeste 0 -- -- 93
2021-02-07 08:00:00 1.2 13 Nordeste 26 Nordeste 0 -- -- 89
2021-02-07 07:00:00 1.1 13 Nordeste 33 Nordeste 0 -- -- 90
2021-02-07 06:00:00 1.1 22 Nordeste 35 Norte 0 -- -- 90
2021-02-07 05:00:00 1.2 17 Nordeste 31 Norte 0 -- -- 91
2021-02-07 04:00:00 1 17 Norte 32 Nordeste 0 -- -- 94
2021-02-07 03:00:00 1.2 18 Nordeste 30 Nordeste 0 -- -- 96
2021-02-07 02:00:00 1.3 17 Nordeste 28 Nordeste 0 -- -- 97
2021-02-07 01:00:00 1.8 9 Nordeste 28 Nordeste 0 -- -- 99
2021-02-07 00:00:00 1.9 13 Nordeste 26 Nordeste 0 -- -- 99
2021-02-06 23:00:00 2.4 11 Norte 29 Norte 0.2 -- -- 98
2021-02-06 22:00:00 2.8 13 Nordeste 22 Nordeste 0 -- -- 99
2021-02-06 21:00:00 3.3 13 Nordeste 23 Nordeste 0.6 -- -- 100
2021-02-06 20:00:00 4 13 Nordeste 27 Nordeste 0.6 -- -- 100
2021-02-06 19:00:00 4.4 8 Nordeste 19 Nordeste 0.4 -- -- 100
2021-02-06 18:00:00 4.9 9 Nordeste 15 Nordeste 1.2 -- -- 99
2021-02-06 17:00:00 5.7 2 Nordeste 5 Este 1.8 -- -- 98
2021-02-06 16:00:00 5.8 5 Sur 20 Sur 2 -- -- 94
2021-02-06 15:00:00 6.4 9 Sur 18 Sudoeste 2.8 -- -- 97
2021-02-06 14:00:00 6.3 2 Sur 10 Sur 1.6 -- -- 96
2021-02-06 13:00:00 5.9 6 Sur 44 Sur 2.2 -- -- 95
2021-02-06 12:00:00 6.7 10 Sudoeste 32 Sur 1 -- -- 91
2021-02-06 11:00:00 6.9 5 Sudoeste 10 Sudoeste 0.6 -- -- 97
2021-02-06 10:00:00 6.7 0 Calma 6 Sudeste 0.6 -- -- 99
2021-02-06 09:00:00 6.5 2 Sur 17 Este 1.4 -- -- 97
2021-02-06 08:00:00 6.9 4 Sur 22 Sudoeste 1.6 -- -- 96
2021-02-06 07:00:00 9 14 Sur 27 Sudoeste 0.2 -- -- 72
2021-02-06 06:00:00 9.9 2 Oeste 18 Oeste 0 -- -- 62
2021-02-06 05:00:00 12.1 10 Sudoeste 23 Sudoeste 0 -- -- 46
2021-02-06 04:00:00 12.5 6 Sur 31 Sudoeste 0 -- -- 47
2021-02-06 03:00:00 13.6 12 Sur 39 Sudoeste 0 -- -- 39
2021-02-06 02:00:00 14 21 Sur 54 Sur 0 -- -- 36
2021-02-06 01:00:00 13.8 14 Sur 62 Sur 0 -- -- 37
2021-02-06 00:00:00 13.1 19 Sudoeste 49 Oeste 0 -- -- 41
2021-02-05 23:00:00 7.9 8 Oeste 21 Noroeste 0 -- -- 76
2021-02-05 22:00:00 8.4 5 Oeste 17 Noroeste 0 -- -- 76
2021-02-05 21:00:00 10 11 Sudoeste 36 Sur 0 -- -- 76
2021-02-05 20:00:00 11.2 22 Sur 38 Sudoeste 0 -- -- 72
2021-02-05 19:00:00 12.4 21 Sur 32 Sur 0 -- -- 65
2021-02-05 18:00:00 13.6 14 Sur 27 Sudoeste 0 -- -- 58
2021-02-05 17:00:00 15.6 9 Sudoeste 39 Sudoeste 0 -- -- 44
2021-02-05 16:00:00 16.1 12 Sur 29 Sudoeste 0 -- -- 42
2021-02-05 15:00:00 15.3 8 Sur 23 Sur 0 -- -- 51
2021-02-05 14:00:00 14.7 15 Sur 29 Sur 0 -- -- 55
2021-02-05 13:00:00 14.4 6 Sur 17 Sudoeste 0 -- -- 59
2021-02-05 12:00:00 12.6 0 Calma 5 Noroeste 0 -- -- 67
2021-02-05 11:00:00 10.2 0 Calma 5 Norte 0 -- -- 77
2021-02-05 10:00:00 8.2 0 Calma 9 Noroeste 0 -- -- 87
2021-02-05 09:00:00 6.8 4 Norte 10 Noroeste 0 -- -- 90
2021-02-05 08:00:00 6.6 5 Noroeste 14 Noroeste 0 -- -- 91
2021-02-05 07:00:00 7.4 5 Noroeste 14 Noroeste 0 -- -- 88
2021-02-05 06:00:00 8.2 5 Noroeste 13 Noroeste 0 -- -- 84
2021-02-05 05:00:00 8.8 6 Noroeste 11 Norte 0 -- -- 80
2021-02-05 04:00:00 9.8 4 Noroeste 15 Sudoeste 0 -- -- 75
2021-02-05 03:00:00 13.2 10 Sur 31 Sur 0 -- -- 53
2021-02-05 02:00:00 12.8 11 Sur 24 Este 0 -- -- 54
2021-02-05 01:00:00 13.2 13 Sur 28 Sur 0 -- -- 50
2021-02-05 00:00:00 12.7 9 Sur 38 Este 0 -- -- 53
2021-02-04 23:00:00 13.1 13 Sur 37 Sur 0 -- -- 52
2021-02-04 22:00:00 13.1 12 Sudeste 40 Sudeste 0 -- -- 51
2021-02-04 21:00:00 12.8 12 Sur 26 Sudoeste 0 -- -- 52
2021-02-04 20:00:00 11.3 6 Sur 14 Sur 0 -- -- 65
2021-02-04 19:00:00 11.5 8 Sudoeste 26 Sur 0 -- -- 68
2021-02-04 18:00:00 13.4 8 Sur 30 Sudoeste 0 -- -- 54
2021-02-04 17:00:00 14.4 13 Sudoeste 30 Sudoeste 0 -- -- 52
2021-02-04 16:00:00 15 15 Sudoeste 33 Sudoeste 0 -- -- 52
2021-02-04 15:00:00 15.7 12 Sudoeste 36 Sudoeste 0 -- -- 53
2021-02-04 14:00:00 14.8 13 Sudoeste 28 Sudeste 0 -- -- 58
2021-02-04 13:00:00 14.3 8 Sur 22 Sudoeste 0 -- -- 64
2021-02-04 12:00:00 12.3 12 Sudoeste 23 Sur 0 -- -- 74
2021-02-04 11:00:00 10.3 7 Sur 21 Sudoeste 0 -- -- 84
2021-02-04 10:00:00 9 5 Sur 24 Sur 0.8 -- -- 93
2021-02-04 09:00:00 10.1 8 Sur 40 Sur 0 -- -- 82
2021-02-04 08:00:00 10.3 10 Sur 30 Sudoeste 0 -- -- 78
2021-02-04 07:00:00 11 10 Sur 27 Sudoeste 0 -- -- 73
2021-02-04 06:00:00 10.4 9 Sur 32 Sur 0 -- -- 77
2021-02-04 05:00:00 9.7 8 Sur 30 Sudoeste 0.2 -- -- 85
2021-02-04 04:00:00 9.9 11 Sur 23 Sudoeste 0 -- -- 84
2021-02-04 03:00:00 9.8 8 Sur 40 Este 0.2 -- -- 82
2021-02-04 02:00:00 10.3 7 Sur 32 Sudeste 0 -- -- 79
2021-02-04 01:00:00 10.3 12 Sur 41 Sudeste 0 -- -- 79
2021-02-04 00:00:00 9.7 6 Sur 23 Sur 0 -- -- 83
2021-02-03 23:00:00 9.3 9 Sur 17 Sudoeste 0 -- -- 90
2021-02-03 22:00:00 8.7 4 Sur 17 Sudoeste 0.4 -- -- 95
2021-02-03 21:00:00 8.8 7 Sur 22 Sur 0 -- -- 94
2021-02-03 20:00:00 8.2 4 Sur 10 Sur 0.2 -- -- 99
2021-02-03 19:00:00 8.1 4 Sur 9 Sudoeste 0 -- -- 100
2021-02-03 18:00:00 8.3 0 Calma 7 Sudoeste 0 -- -- 99
2021-02-03 17:00:00 8.6 0 Calma 13 Sudoeste 0.2 -- -- 98
2021-02-03 16:00:00 8.8 7 Sudoeste 17 Sudoeste 1 -- -- 94
2021-02-03 15:00:00 9.1 8 Sur 23 Sudoeste 0 -- -- 87
2021-02-03 14:00:00 9.2 12 Sudoeste 31 Sudoeste 0.4 -- -- 83
2021-02-03 13:00:00 8.7 6 Sudoeste 23 Sudoeste 0.2 -- -- 88
2021-02-03 12:00:00 9.4 9 Sudoeste 25 Sudoeste 0.2 -- -- 81
2021-02-03 11:00:00 10.1 12 Sudoeste 35 Oeste 0 -- -- 74
2021-02-03 10:00:00 9.9 13 Sudoeste 28 Sudoeste 0 -- -- 72
2021-02-03 09:00:00 10 9 Sudoeste 30 Sudoeste 0 -- -- 71
2021-02-03 08:00:00 10.2 13 Sudoeste 37 Sudoeste 0 -- -- 69
2021-02-03 07:00:00 10.2 17 Sudoeste 46 Sudoeste 0 -- -- 70
2021-02-03 06:00:00 9.8 23 Sudoeste 54 Sur 0 -- -- 74
2021-02-03 05:00:00 9.9 24 Sudoeste 49 Sudoeste 0 -- -- 73
2021-02-03 04:00:00 10.2 16 Sur 48 Sudoeste 0 -- -- 70
2021-02-03 03:00:00 10.5 20 Sudoeste 51 Sudoeste 0 -- -- 72
2021-02-03 02:00:00 10.9 24 Sudoeste 50 Sudoeste 0 -- -- 71
2021-02-03 01:00:00 11.2 25 Sudoeste 49 Sudoeste 0 -- -- 70
2021-02-03 00:00:00 10.7 16 Sudoeste 39 Sudoeste 0 -- -- 74
2021-02-02 23:00:00 10.8 14 Sur 40 Sudoeste 0 -- -- 74
2021-02-02 22:00:00 11.7 23 Sudoeste 44 Sudoeste 0 -- -- 70
2021-02-02 21:00:00 11.5 13 Sudoeste 35 Sur 0 -- -- 71
2021-02-02 20:00:00 10.7 8 Sur 20 Sudeste 0 -- -- 79
2021-02-02 19:00:00 10.7 10 Sur 18 Sur 0 -- -- 83
2021-02-02 18:00:00 11.4 5 Sudoeste 17 Sur 0 -- -- 79
2021-02-02 17:00:00 12.6 10 Sudoeste 24 Sudoeste 0 -- -- 71
2021-02-02 16:00:00 13.3 14 Sudoeste 26 Sudoeste 0 -- -- 68
2021-02-02 15:00:00 13.3 8 Sudoeste 21 Sudoeste 0 -- -- 72
2021-02-02 14:00:00 13.6 4 Sur 17 Sur 0 -- -- 72
2021-02-02 13:00:00 12 2 Este 7 Sudeste 0 -- -- 78
2021-02-02 12:00:00 10.7 0 Calma 4 Este 0 -- -- 99
2021-02-02 11:00:00 8.6 0 Calma 3 Este 0 -- -- 100
2021-02-02 10:00:00 6.6 0 Calma 6 Norte 0 -- -- 100
2021-02-02 09:00:00 5.7 0 Calma 4 Nordeste 0 -- -- 100
2021-02-02 08:00:00 5.4 3 Norte 5 Este 0 -- -- 100
2021-02-02 07:00:00 5.2 2 Norte 8 Nordeste 0 -- -- 100
2021-02-02 06:00:00 5.2 2 Nordeste 7 Nordeste 0 -- -- 100
2021-02-02 05:00:00 5.2 3 Norte 6 Norte 0 -- -- 100
2021-02-02 04:00:00 5.9 2 Norte 6 Este 0 -- -- 100
2021-02-02 03:00:00 6.5 4 Nordeste 11 Nordeste 0 -- -- 100
2021-02-02 02:00:00 6.5 4 Nordeste 9 Nordeste 0 -- -- 100
2021-02-02 01:00:00 6.6 5 Nordeste 10 Nordeste 0.4 -- -- 100
2021-02-02 00:00:00 6.7 3 Norte 10 Nordeste 1.2 -- -- 100
2021-02-01 23:00:00 6.7 2 Norte 12 Nordeste 0.8 -- -- 100
2021-02-01 22:00:00 6.8 3 Norte 7 Norte 0.8 -- -- 100
2021-02-01 21:00:00 7 4 Norte 14 Norte 0.4 -- -- 100
2021-02-01 20:00:00 7 5 Norte 15 Nordeste 0 -- -- 100
2021-02-01 19:00:00 7.6 6 Nordeste 13 Norte 0.2 -- -- 100
2021-02-01 18:00:00 7.6 7 Nordeste 17 Nordeste 0.4 -- -- 100
2021-02-01 17:00:00 7.8 7 Nordeste 18 Nordeste 0.6 -- -- 100
2021-02-01 16:00:00 8.3 8 Nordeste 24 Nordeste 0.4 -- -- 98
2021-02-01 15:00:00 8.3 11 Nordeste 28 Este 0.4 -- -- 97
2021-02-01 14:00:00 8 8 Nordeste 22 Nordeste 0.6 -- -- 98
2021-02-01 13:00:00 7.5 8 Nordeste 31 Norte 1.2 -- -- 96
2021-02-01 12:00:00 7.6 8 Nordeste 27 Este 0 -- -- 89
2021-02-01 11:00:00 6.9 10 Nordeste 42 Nordeste 0 -- -- 86
2021-02-01 10:00:00 6.9 11 Nordeste 34 Nordeste 0 -- -- 88
2021-02-01 09:00:00 6.6 18 Este 35 Nordeste 0.4 -- -- 91
2021-02-01 08:00:00 5.9 12 Nordeste 25 Norte 0.8 -- -- 100
2021-02-01 07:00:00 5.6 12 Nordeste 25 Nordeste 1 -- -- 100
2021-02-01 06:00:00 5.7 9 Este 23 Sudeste 1.8 -- -- 98
2021-02-01 05:00:00 5.7 3 Sur 13 Este 1.2 -- -- 99
2021-02-01 04:00:00 5.9 4 Este 18 Este 1.2 -- -- 96
2021-02-01 03:00:00 6.2 4 Este 22 Este 0.6 -- -- 95
2021-02-01 02:00:00 6.4 5 Este 13 Este 1.4 -- -- 98
2021-02-01 01:00:00 6.7 4 Norte 24 Norte 2.2 -- -- 100
2021-02-01 00:00:00 6.6 3 Sur 21 Norte 0.8 -- -- 100
2021-01-31 23:00:00 5.5 4 Noroeste 17 Oeste 1.4 -- -- 100
2021-01-31 22:00:00 5.6 0 Calma 13 Noroeste 0.2 -- -- 100
2021-01-31 21:00:00 5.7 0 Calma 9 Norte 0 -- -- 100
2021-01-31 20:00:00 5.6 4 Norte 7 Este 0 -- -- 100
2021-01-31 19:00:00 6.3 4 Sur 8 Sur 0 -- -- 100
2021-01-31 18:00:00 7.1 3 Sudoeste 7 Sudoeste 0 -- -- 100
2021-01-31 17:00:00 7.5 0 Calma 4 Sudoeste 0 -- -- 100
2021-01-31 16:00:00 7.4 0 Calma 2 Sudeste 0.8 -- -- 100
2021-01-31 15:00:00 7.4 0 Calma 9 Noroeste 1.2 -- -- 100
2021-01-31 14:00:00 7.7 4 Norte 9 Norte 1.6 -- -- 100
2021-01-31 13:00:00 7.3 4 Norte 11 Norte 0 -- -- 100
2021-01-31 12:00:00 4.5 4 Norte 9 Norte 0.2 -- -- 100
2021-01-31 11:00:00 3.2 5 Noroeste 12 Norte 0.2 -- -- 100
2021-01-31 10:00:00 1.9 5 Norte 12 Norte 0.4 -- -- 100
2021-01-31 09:00:00 1.2 5 Norte 12 Norte 1 -- -- 100
2021-01-31 08:00:00 0.6 3 Norte 8 Noroeste 1.8 -- -- 100
2021-01-31 07:00:00 0.5 2 Sur 9 Noroeste 1.8 -- -- 100
2021-01-31 06:00:00 0.2 3 Norte 8 Norte 2.8 -- -- 100
2021-01-31 05:00:00 0 0 Calma 8 Norte 2.8 -- -- 100
2021-01-31 04:00:00 0.3 4 Norte 11 Norte 1.8 -- -- 100
2021-01-31 03:00:00 0.6 4 Norte 9 Norte 1.6 -- -- 100
2021-01-31 02:00:00 1.1 3 Norte 11 Nordeste 1.8 -- -- 100
2021-01-31 01:00:00 1.4 6 Nordeste 19 Nordeste 1.6 -- -- 100
2021-01-31 00:00:00 2 8 Nordeste 15 Nordeste 1.4 -- -- 100